sensor_id;sensor_type;location;lat;lon;timestamp;temperature;humidity
22706;DHT22;11520;51.198;4.468;2023-07-22T00:00:34;18.30;99.90
22706;DHT22;11520;51.198;4.468;2023-07-22T00:03:01;18.30;99.90
22706;DHT22;11520;51.198;4.468;2023-07-22T00:05:26;18.30;99.90
22706;DHT22;11520;51.198;4.468;2023-07-22T00:07:52;18.30;99.90
22706;DHT22;11520;51.198;4.468;2023-07-22T00:10:19;18.30;99.90
22706;DHT22;11520;51.198;4.468;2023-07-22T00:12:45;18.20;99.90
22706;DHT22;11520;51.198;4.468;2023-07-22T00:15:13;18.20;99.90
22706;DHT22;11520;51.198;4.468;2023-07-22T00:17:40;18.20;99.90
22706;DHT22;11520;51.198;4.468;2023-07-22T00:20:07;18.20;99.90
22706;DHT22;11520;51.198;4.468;2023-07-22T00:22:39;18.20;99.90
22706;DHT22;11520;51.198;4.468;2023-07-22T00:25:10;18.10;99.90
22706;DHT22;11520;51.198;4.468;2023-07-22T00:27:39;18.20;99.90
22706;DHT22;11520;51.198;4.468;2023-07-22T00:30:06;18.30;99.90
22706;DHT22;11520;51.198;4.468;2023-07-22T00:32:32;18.20;99.90
22706;DHT22;11520;51.198;4.468;2023-07-22T00:34:58;18.20;99.90
22706;DHT22;11520;51.198;4.468;2023-07-22T00:37:24;18.20;99.90
22706;DHT22;11520;51.198;4.468;2023-07-22T00:39:50;18.20;99.90
22706;DHT22;11520;51.198;4.468;2023-07-22T00:42:16;18.30;99.90
22706;DHT22;11520;51.198;4.468;2023-07-22T00:44:42;18.30;99.90
22706;DHT22;11520;51.198;4.468;2023-07-22T00:47:09;18.40;99.90
22706;DHT22;11520;51.198;4.468;2023-07-22T00:49:36;18.30;99.90
22706;DHT22;11520;51.198;4.468;2023-07-22T00:52:02;18.30;99.90
22706;DHT22;11520;51.198;4.468;2023-07-22T00:54:29;18.30;99.90
22706;DHT22;11520;51.198;4.468;2023-07-22T00:56:56;18.30;99.90
22706;DHT22;11520;51.198;4.468;2023-07-22T00:59:23;18.30;99.90
22706;DHT22;11520;51.198;4.468;2023-07-22T01:01:49;18.20;99.90
22706;DHT22;11520;51.198;4.468;2023-07-22T01:04:15;18.10;99.90
22706;DHT22;11520;51.198;4.468;2023-07-22T01:06:44;18.10;99.90
22706;DHT22;11520;51.198;4.468;2023-07-22T01:09:10;18.10;99.90
22706;DHT22;11520;51.198;4.468;2023-07-22T01:11:36;18.10;99.90
22706;DHT22;11520;51.198;4.468;2023-07-22T01:14:02;18.10;99.90
22706;DHT22;11520;51.198;4.468;2023-07-22T01:16:30;18.20;99.90
22706;DHT22;11520;51.198;4.468;2023-07-22T01:18:56;17.90;99.90
22706;DHT22;11520;51.198;4.468;2023-07-22T01:21:26;17.90;99.90
22706;DHT22;11520;51.198;4.468;2023-07-22T01:23:52;17.80;99.90
22706;DHT22;11520;51.198;4.468;2023-07-22T01:26:18;17.70;99.90
22706;DHT22;11520;51.198;4.468;2023-07-22T01:28:44;17.50;99.90
22706;DHT22;11520;51.198;4.468;2023-07-22T01:31:10;17.50;99.90
22706;DHT22;11520;51.198;4.468;2023-07-22T01:33:35;17.50;99.90
22706;DHT22;11520;51.198;4.468;2023-07-22T01:36:03;17.50;99.90
22706;DHT22;11520;51.198;4.468;2023-07-22T01:38:28;17.40;99.90
22706;DHT22;11520;51.198;4.468;2023-07-22T01:40:55;17.30;99.90
22706;DHT22;11520;51.198;4.468;2023-07-22T01:43:20;17.40;99.90
22706;DHT22;11520;51.198;4.468;2023-07-22T01:45:46;17.30;99.90
22706;DHT22;11520;51.198;4.468;2023-07-22T01:48:12;17.30;99.90
22706;DHT22;11520;51.198;4.468;2023-07-22T01:50:38;17.30;99.90
22706;DHT22;11520;51.198;4.468;2023-07-22T01:53:03;17.30;99.90
22706;DHT22;11520;51.198;4.468;2023-07-22T01:55:30;17.40;99.90
22706;DHT22;11520;51.198;4.468;2023-07-22T01:57:57;17.30;99.90
22706;DHT22;11520;51.198;4.468;2023-07-22T02:00:26;17.30;99.90
22706;DHT22;11520;51.198;4.468;2023-07-22T02:02:53;17.30;99.90
22706;DHT22;11520;51.198;4.468;2023-07-22T02:05:19;17.30;99.90
22706;DHT22;11520;51.198;4.468;2023-07-22T02:07:46;17.20;99.90
22706;DHT22;11520;51.198;4.468;2023-07-22T02:10:12;17.00;99.90
22706;DHT22;11520;51.198;4.468;2023-07-22T02:12:38;17.00;99.90
22706;DHT22;11520;51.198;4.468;2023-07-22T02:15:04;17.10;99.90
22706;DHT22;11520;51.198;4.468;2023-07-22T02:17:30;17.10;99.90
22706;DHT22;11520;51.198;4.468;2023-07-22T02:19:57;17.10;99.90
22706;DHT22;11520;51.198;4.468;2023-07-22T02:22:22;17.10;99.90
22706;DHT22;11520;51.198;4.468;2023-07-22T02:24:48;17.00;99.90
22706;DHT22;11520;51.198;4.468;2023-07-22T02:27:14;16.90;99.90
22706;DHT22;11520;51.198;4.468;2023-07-22T02:29:39;16.90;99.90
22706;DHT22;11520;51.198;4.468;2023-07-22T02:32:05;16.80;99.90
22706;DHT22;11520;51.198;4.468;2023-07-22T02:34:31;16.70;99.90
22706;DHT22;11520;51.198;4.468;2023-07-22T02:36:56;16.60;99.90
22706;DHT22;11520;51.198;4.468;2023-07-22T02:39:22;16.60;99.90
22706;DHT22;11520;51.198;4.468;2023-07-22T02:41:49;16.60;99.90
22706;DHT22;11520;51.198;4.468;2023-07-22T02:44:14;16.60;99.90
22706;DHT22;11520;51.198;4.468;2023-07-22T02:46:40;16.60;99.90
22706;DHT22;11520;51.198;4.468;2023-07-22T02:49:06;16.60;99.90
22706;DHT22;11520;51.198;4.468;2023-07-22T02:51:32;16.60;99.90
22706;DHT22;11520;51.198;4.468;2023-07-22T02:53:59;16.60;99.90
22706;DHT22;11520;51.198;4.468;2023-07-22T02:56:24;16.60;99.90
22706;DHT22;11520;51.198;4.468;2023-07-22T02:58:50;16.60;99.90
22706;DHT22;11520;51.198;4.468;2023-07-22T03:01:15;16.60;99.90
22706;DHT22;11520;51.198;4.468;2023-07-22T03:03:41;16.60;99.90
22706;DHT22;11520;51.198;4.468;2023-07-22T03:06:07;16.60;99.90
22706;DHT22;11520;51.198;4.468;2023-07-22T03:08:34;16.60;99.90
22706;DHT22;11520;51.198;4.468;2023-07-22T03:11:02;16.60;99.90
22706;DHT22;11520;51.198;4.468;2023-07-22T03:13:29;16.50;99.90
22706;DHT22;11520;51.198;4.468;2023-07-22T03:15:55;16.50;99.90
22706;DHT22;11520;51.198;4.468;2023-07-22T03:18:21;16.50;99.90
22706;DHT22;11520;51.198;4.468;2023-07-22T03:20:47;16.60;99.90
22706;DHT22;11520;51.198;4.468;2023-07-22T03:23:12;16.60;99.90
22706;DHT22;11520;51.198;4.468;2023-07-22T03:25:38;16.50;99.90
22706;DHT22;11520;51.198;4.468;2023-07-22T03:28:05;16.40;99.90
22706;DHT22;11520;51.198;4.468;2023-07-22T03:30:31;16.40;99.90
22706;DHT22;11520;51.198;4.468;2023-07-22T03:32:57;16.40;99.90
22706;DHT22;11520;51.198;4.468;2023-07-22T03:35:23;16.40;99.90
22706;DHT22;11520;51.198;4.468;2023-07-22T03:37:48;16.30;99.90
22706;DHT22;11520;51.198;4.468;2023-07-22T03:40:14;16.30;99.90
22706;DHT22;11520;51.198;4.468;2023-07-22T03:42:45;16.30;99.90
22706;DHT22;11520;51.198;4.468;2023-07-22T03:45:11;16.30;99.90
22706;DHT22;11520;51.198;4.468;2023-07-22T03:47:38;16.30;99.90
22706;DHT22;11520;51.198;4.468;2023-07-22T03:50:04;16.30;99.90
22706;DHT22;11520;51.198;4.468;2023-07-22T03:52:32;16.30;99.90
22706;DHT22;11520;51.198;4.468;2023-07-22T03:54:58;16.20;99.90
22706;DHT22;11520;51.198;4.468;2023-07-22T03:57:27;16.20;99.90
22706;DHT22;11520;51.198;4.468;2023-07-22T03:59:54;16.20;99.90
22706;DHT22;11520;51.198;4.468;2023-07-22T04:02:20;16.10;99.90
22706;DHT22;11520;51.198;4.468;2023-07-22T04:04:46;16.10;99.90
22706;DHT22;11520;51.198;4.468;2023-07-22T04:07:11;16.00;99.90
22706;DHT22;11520;51.198;4.468;2023-07-22T04:09:37;16.00;99.90
22706;DHT22;11520;51.198;4.468;2023-07-22T04:12:03;16.10;99.90
22706;DHT22;11520;51.198;4.468;2023-07-22T04:14:28;16.10;99.90
22706;DHT22;11520;51.198;4.468;2023-07-22T04:16:54;16.10;99.90
22706;DHT22;11520;51.198;4.468;2023-07-22T04:19:20;16.10;99.90
22706;DHT22;11520;51.198;4.468;2023-07-22T04:21:46;16.10;99.90
22706;DHT22;11520;51.198;4.468;2023-07-22T04:24:12;16.10;99.90
22706;DHT22;11520;51.198;4.468;2023-07-22T04:26:37;16.10;99.90
22706;DHT22;11520;51.198;4.468;2023-07-22T04:29:03;16.20;99.90
22706;DHT22;11520;51.198;4.468;2023-07-22T04:31:29;16.20;99.90
22706;DHT22;11520;51.198;4.468;2023-07-22T04:33:57;16.10;99.90
22706;DHT22;11520;51.198;4.468;2023-07-22T04:36:22;16.10;99.90
22706;DHT22;11520;51.198;4.468;2023-07-22T04:38:48;16.20;99.90
22706;DHT22;11520;51.198;4.468;2023-07-22T04:41:14;16.30;99.90
22706;DHT22;11520;51.198;4.468;2023-07-22T04:43:40;16.40;99.90
22706;DHT22;11520;51.198;4.468;2023-07-22T04:46:06;16.40;99.90
22706;DHT22;11520;51.198;4.468;2023-07-22T04:48:33;16.40;99.90
22706;DHT22;11520;51.198;4.468;2023-07-22T04:50:58;16.50;99.90
22706;DHT22;11520;51.198;4.468;2023-07-22T04:53:24;16.50;99.90
22706;DHT22;11520;51.198;4.468;2023-07-22T04:55:49;16.60;99.90
22706;DHT22;11520;51.198;4.468;2023-07-22T04:58:15;16.60;99.90
22706;DHT22;11520;51.198;4.468;2023-07-22T05:00:41;16.70;99.90
22706;DHT22;11520;51.198;4.468;2023-07-22T05:03:08;16.60;99.90
22706;DHT22;11520;51.198;4.468;2023-07-22T05:05:33;16.70;99.90
22706;DHT22;11520;51.198;4.468;2023-07-22T05:07:59;16.80;99.90
22706;DHT22;11520;51.198;4.468;2023-07-22T05:10:24;16.90;99.90
22706;DHT22;11520;51.198;4.468;2023-07-22T05:12:50;17.10;99.90
22706;DHT22;11520;51.198;4.468;2023-07-22T05:15:17;17.00;99.90
22706;DHT22;11520;51.198;4.468;2023-07-22T05:17:42;16.90;99.90
22706;DHT22;11520;51.198;4.468;2023-07-22T05:20:08;16.80;99.90
22706;DHT22;11520;51.198;4.468;2023-07-22T05:22:40;16.80;99.90
22706;DHT22;11520;51.198;4.468;2023-07-22T05:25:06;16.80;99.90
22706;DHT22;11520;51.198;4.468;2023-07-22T05:27:32;16.90;99.90
22706;DHT22;11520;51.198;4.468;2023-07-22T05:29:58;17.10;99.90
22706;DHT22;11520;51.198;4.468;2023-07-22T05:32:24;17.00;99.90
22706;DHT22;11520;51.198;4.468;2023-07-22T05:34:49;17.00;99.90
22706;DHT22;11520;51.198;4.468;2023-07-22T05:37:15;17.10;99.90
22706;DHT22;11520;51.198;4.468;2023-07-22T05:39:40;17.20;99.90
22706;DHT22;11520;51.198;4.468;2023-07-22T05:42:06;17.20;99.90
22706;DHT22;11520;51.198;4.468;2023-07-22T05:44:32;17.30;99.90
22706;DHT22;11520;51.198;4.468;2023-07-22T05:46:57;17.60;99.90
22706;DHT22;11520;51.198;4.468;2023-07-22T05:49:23;17.90;99.90
22706;DHT22;11520;51.198;4.468;2023-07-22T05:51:50;18.20;99.90
22706;DHT22;11520;51.198;4.468;2023-07-22T05:54:16;18.50;99.90
22706;DHT22;11520;51.198;4.468;2023-07-22T05:56:42;18.80;99.90
22706;DHT22;11520;51.198;4.468;2023-07-22T05:59:07;19.30;99.90
22706;DHT22;11520;51.198;4.468;2023-07-22T06:01:33;19.90;99.90
22706;DHT22;11520;51.198;4.468;2023-07-22T06:03:59;20.50;99.90
22706;DHT22;11520;51.198;4.468;2023-07-22T06:06:24;20.40;99.90
22706;DHT22;11520;51.198;4.468;2023-07-22T06:08:50;20.60;99.90
22706;DHT22;11520;51.198;4.468;2023-07-22T06:11:15;21.20;99.90
22706;DHT22;11520;51.198;4.468;2023-07-22T06:13:41;21.10;99.90
22706;DHT22;11520;51.198;4.468;2023-07-22T06:16:06;21.10;99.90
22706;DHT22;11520;51.198;4.468;2023-07-22T06:18:32;21.20;99.90
22706;DHT22;11520;51.198;4.468;2023-07-22T06:20:58;21.20;99.90
22706;DHT22;11520;51.198;4.468;2023-07-22T06:23:24;21.30;99.90
22706;DHT22;11520;51.198;4.468;2023-07-22T06:25:49;21.60;99.90
22706;DHT22;11520;51.198;4.468;2023-07-22T06:28:15;22.20;99.90
22706;DHT22;11520;51.198;4.468;2023-07-22T06:30:40;22.40;99.90
22706;DHT22;11520;51.198;4.468;2023-07-22T06:33:06;22.50;99.90
22706;DHT22;11520;51.198;4.468;2023-07-22T06:35:31;22.90;99.90
22706;DHT22;11520;51.198;4.468;2023-07-22T06:37:57;23.60;99.90
22706;DHT22;11520;51.198;4.468;2023-07-22T06:40:25;24.30;99.90
22706;DHT22;11520;51.198;4.468;2023-07-22T06:42:50;24.70;99.90
22706;DHT22;11520;51.198;4.468;2023-07-22T06:45:16;24.00;99.90
22706;DHT22;11520;51.198;4.468;2023-07-22T06:47:43;24.20;99.90
22706;DHT22;11520;51.198;4.468;2023-07-22T06:50:14;24.50;99.90
22706;DHT22;11520;51.198;4.468;2023-07-22T06:52:39;24.20;99.90
22706;DHT22;11520;51.198;4.468;2023-07-22T06:55:07;24.00;99.90
22706;DHT22;11520;51.198;4.468;2023-07-22T06:57:33;24.30;99.90
22706;DHT22;11520;51.198;4.468;2023-07-22T06:59:59;24.00;99.90
22706;DHT22;11520;51.198;4.468;2023-07-22T07:02:25;23.50;99.90
22706;DHT22;11520;51.198;4.468;2023-07-22T07:04:50;22.70;99.90
22706;DHT22;11520;51.198;4.468;2023-07-22T07:07:16;22.40;99.90
22706;DHT22;11520;51.198;4.468;2023-07-22T07:09:43;22.40;99.90
22706;DHT22;11520;51.198;4.468;2023-07-22T07:12:09;22.30;99.90
22706;DHT22;11520;51.198;4.468;2023-07-22T07:14:35;22.40;99.90
22706;DHT22;11520;51.198;4.468;2023-07-22T07:17:02;22.70;99.90
22706;DHT22;11520;51.198;4.468;2023-07-22T07:19:28;22.80;99.90
22706;DHT22;11520;51.198;4.468;2023-07-22T07:21:54;22.70;99.90
22706;DHT22;11520;51.198;4.468;2023-07-22T07:24:22;22.70;99.90
22706;DHT22;11520;51.198;4.468;2023-07-22T07:26:47;22.90;99.90
22706;DHT22;11520;51.198;4.468;2023-07-22T07:29:13;22.90;99.90
22706;DHT22;11520;51.198;4.468;2023-07-22T07:31:40;22.90;99.90
22706;DHT22;11520;51.198;4.468;2023-07-22T07:34:07;22.80;99.90
22706;DHT22;11520;51.198;4.468;2023-07-22T07:36:37;22.80;99.90
22706;DHT22;11520;51.198;4.468;2023-07-22T07:39:12;23.00;99.90
22706;DHT22;11520;51.198;4.468;2023-07-22T07:41:37;23.10;99.90
22706;DHT22;11520;51.198;4.468;2023-07-22T07:44:04;23.60;99.90
22706;DHT22;11520;51.198;4.468;2023-07-22T07:46:30;24.30;99.90
22706;DHT22;11520;51.198;4.468;2023-07-22T07:49:02;24.90;99.90
22706;DHT22;11520;51.198;4.468;2023-07-22T07:51:30;24.90;99.90
22706;DHT22;11520;51.198;4.468;2023-07-22T07:53:57;25.20;99.90
22706;DHT22;11520;51.198;4.468;2023-07-22T07:56:26;25.60;99.90
22706;DHT22;11520;51.198;4.468;2023-07-22T07:58:53;26.60;99.90
22706;DHT22;11520;51.198;4.468;2023-07-22T08:01:19;26.60;99.90
22706;DHT22;11520;51.198;4.468;2023-07-22T08:03:47;26.60;99.90
22706;DHT22;11520;51.198;4.468;2023-07-22T08:06:13;27.30;99.90
22706;DHT22;11520;51.198;4.468;2023-07-22T08:08:39;29.10;99.00
22706;DHT22;11520;51.198;4.468;2023-07-22T08:11:13;29.20;96.20
22706;DHT22;11520;51.198;4.468;2023-07-22T08:13:41;29.10;95.80
22706;DHT22;11520;51.198;4.468;2023-07-22T08:16:09;28.80;94.90
22706;DHT22;11520;51.198;4.468;2023-07-22T08:18:35;27.80;95.50
22706;DHT22;11520;51.198;4.468;2023-07-22T08:21:02;27.00;96.90
22706;DHT22;11520;51.198;4.468;2023-07-22T08:23:29;26.60;97.90
22706;DHT22;11520;51.198;4.468;2023-07-22T08:25:56;26.40;98.70
22706;DHT22;11520;51.198;4.468;2023-07-22T08:28:22;25.80;99.90
22706;DHT22;11520;51.198;4.468;2023-07-22T08:30:48;26.00;99.90
22706;DHT22;11520;51.198;4.468;2023-07-22T08:33:15;26.30;98.80
22706;DHT22;11520;51.198;4.468;2023-07-22T08:35:45;26.50;98.80
22706;DHT22;11520;51.198;4.468;2023-07-22T08:38:14;26.80;97.90
22706;DHT22;11520;51.198;4.468;2023-07-22T08:45:47;29.50;92.50
22706;DHT22;11520;51.198;4.468;2023-07-22T08:48:15;29.70;92.20
22706;DHT22;11520;51.198;4.468;2023-07-22T08:53:19;31.10;88.50
22706;DHT22;11520;51.198;4.468;2023-07-22T08:58:21;32.70;80.20
22706;DHT22;11520;51.198;4.468;2023-07-22T09:00:47;32.70;78.30
22706;DHT22;11520;51.198;4.468;2023-07-22T09:03:14;33.90;73.50
22706;DHT22;11520;51.198;4.468;2023-07-22T09:05:40;33.40;72.70
22706;DHT22;11520;51.198;4.468;2023-07-22T09:08:07;33.10;70.90
22706;DHT22;11520;51.198;4.468;2023-07-22T09:10:34;32.80;70.30
22706;DHT22;11520;51.198;4.468;2023-07-22T09:13:01;33.90;69.80
22706;DHT22;11520;51.198;4.468;2023-07-22T09:15:28;34.80;66.60
22706;DHT22;11520;51.198;4.468;2023-07-22T09:17:54;34.40;64.20
22706;DHT22;11520;51.198;4.468;2023-07-22T09:20:20;34.70;63.50
22706;DHT22;11520;51.198;4.468;2023-07-22T09:22:49;34.00;63.40
22706;DHT22;11520;51.198;4.468;2023-07-22T09:25:22;33.70;63.10
22706;DHT22;11520;51.198;4.468;2023-07-22T09:27:53;32.60;66.60
22706;DHT22;11520;51.198;4.468;2023-07-22T09:30:32;31.50;67.00
22706;DHT22;11520;51.198;4.468;2023-07-22T09:33:02;30.50;68.50
22706;DHT22;11520;51.198;4.468;2023-07-22T09:35:45;29.30;71.80
22706;DHT22;11520;51.198;4.468;2023-07-22T09:38:24;29.10;75.10
22706;DHT22;11520;51.198;4.468;2023-07-22T09:40:50;29.60;72.20
22706;DHT22;11520;51.198;4.468;2023-07-22T09:43:16;29.90;72.40
22706;DHT22;11520;51.198;4.468;2023-07-22T09:45:45;29.50;72.10
22706;DHT22;11520;51.198;4.468;2023-07-22T09:48:11;29.80;72.00
22706;DHT22;11520;51.198;4.468;2023-07-22T09:50:37;29.80;71.90
22706;DHT22;11520;51.198;4.468;2023-07-22T09:53:04;30.30;71.80
22706;DHT22;11520;51.198;4.468;2023-07-22T09:55:31;30.20;69.60
22706;DHT22;11520;51.198;4.468;2023-07-22T09:58:03;30.10;69.90
22706;DHT22;11520;51.198;4.468;2023-07-22T10:00:33;29.80;70.70
22706;DHT22;11520;51.198;4.468;2023-07-22T10:03:04;29.60;71.80
22706;DHT22;11520;51.198;4.468;2023-07-22T10:05:35;28.80;71.30
22706;DHT22;11520;51.198;4.468;2023-07-22T10:08:02;28.60;74.50
22706;DHT22;11520;51.198;4.468;2023-07-22T10:10:37;28.70;73.50
22706;DHT22;11520;51.198;4.468;2023-07-22T10:13:03;29.60;73.20
22706;DHT22;11520;51.198;4.468;2023-07-22T10:15:33;30.40;68.80
22706;DHT22;11520;51.198;4.468;2023-07-22T10:18:04;30.70;69.40
22706;DHT22;11520;51.198;4.468;2023-07-22T10:20:33;30.70;66.70
22706;DHT22;11520;51.198;4.468;2023-07-22T10:23:03;30.30;68.50
22706;DHT22;11520;51.198;4.468;2023-07-22T10:25:30;29.40;68.00
22706;DHT22;11520;51.198;4.468;2023-07-22T10:27:55;29.00;70.40
22706;DHT22;11520;51.198;4.468;2023-07-22T10:30:21;29.00;69.70
22706;DHT22;11520;51.198;4.468;2023-07-22T10:32:51;28.80;69.90
22706;DHT22;11520;51.198;4.468;2023-07-22T10:38:08;29.70;68.20
22706;DHT22;11520;51.198;4.468;2023-07-22T10:43:15;32.00;63.60
22706;DHT22;11520;51.198;4.468;2023-07-22T10:45:43;32.00;61.70
22706;DHT22;11520;51.198;4.468;2023-07-22T10:48:11;31.80;59.90
22706;DHT22;11520;51.198;4.468;2023-07-22T10:53:13;32.20;58.60
22706;DHT22;11520;51.198;4.468;2023-07-22T10:59:00;31.50;59.10
22706;DHT22;11520;51.198;4.468;2023-07-22T11:14:53;31.80;55.20
22706;DHT22;11520;51.198;4.468;2023-07-22T11:17:29;31.60;55.80
22706;DHT22;11520;51.198;4.468;2023-07-22T11:19:56;30.70;55.70
22706;DHT22;11520;51.198;4.468;2023-07-22T11:22:23;31.00;56.90
22706;DHT22;11520;51.198;4.468;2023-07-22T11:24:49;31.60;56.80
22706;DHT22;11520;51.198;4.468;2023-07-22T11:27:15;31.50;55.70
22706;DHT22;11520;51.198;4.468;2023-07-22T11:29:41;30.90;56.40
22706;DHT22;11520;51.198;4.468;2023-07-22T11:32:15;30.40;56.70
22706;DHT22;11520;51.198;4.468;2023-07-22T11:34:46;30.50;57.20
22706;DHT22;11520;51.198;4.468;2023-07-22T11:37:13;29.90;58.60
22706;DHT22;11520;51.198;4.468;2023-07-22T11:39:40;29.20;59.90
22706;DHT22;11520;51.198;4.468;2023-07-22T11:42:08;29.00;60.20
22706;DHT22;11520;51.198;4.468;2023-07-22T11:44:34;28.50;61.20
22706;DHT22;11520;51.198;4.468;2023-07-22T11:47:08;28.60;62.00
22706;DHT22;11520;51.198;4.468;2023-07-22T11:49:41;29.40;60.00
22706;DHT22;11520;51.198;4.468;2023-07-22T11:52:11;29.80;58.90
22706;DHT22;11520;51.198;4.468;2023-07-22T11:54:43;29.10;59.20
22706;DHT22;11520;51.198;4.468;2023-07-22T11:57:15;29.10;59.60
22706;DHT22;11520;51.198;4.468;2023-07-22T11:59:47;29.40;59.00
22706;DHT22;11520;51.198;4.468;2023-07-22T12:02:18;29.40;59.00
22706;DHT22;11520;51.198;4.468;2023-07-22T12:04:54;29.20;59.60
22706;DHT22;11520;51.198;4.468;2023-07-22T12:07:31;28.80;58.50
22706;DHT22;11520;51.198;4.468;2023-07-22T12:09:59;28.20;60.90
22706;DHT22;11520;51.198;4.468;2023-07-22T12:12:40;27.90;61.30
22706;DHT22;11520;51.198;4.468;2023-07-22T12:15:20;27.20;62.70
22706;DHT22;11520;51.198;4.468;2023-07-22T12:17:58;27.20;63.20
22706;DHT22;11520;51.198;4.468;2023-07-22T12:20:25;27.00;63.60
22706;DHT22;11520;51.198;4.468;2023-07-22T12:23:06;26.80;64.00
22706;DHT22;11520;51.198;4.468;2023-07-22T12:25:32;26.60;64.00
22706;DHT22;11520;51.198;4.468;2023-07-22T12:27:58;26.50;64.80
22706;DHT22;11520;51.198;4.468;2023-07-22T12:30:23;26.40;65.60
22706;DHT22;11520;51.198;4.468;2023-07-22T12:32:50;26.20;66.30
22706;DHT22;11520;51.198;4.468;2023-07-22T12:35:20;26.60;66.20
22706;DHT22;11520;51.198;4.468;2023-07-22T12:37:49;26.90;64.80
22706;DHT22;11520;51.198;4.468;2023-07-22T12:40:16;26.90;63.80
22706;DHT22;11520;51.198;4.468;2023-07-22T12:42:42;26.90;63.90
22706;DHT22;11520;51.198;4.468;2023-07-22T12:45:09;26.80;64.00
22706;DHT22;11520;51.198;4.468;2023-07-22T12:47:35;26.40;64.90
22706;DHT22;11520;51.198;4.468;2023-07-22T12:50:02;26.50;65.50
22706;DHT22;11520;51.198;4.468;2023-07-22T12:52:28;26.60;66.00
22706;DHT22;11520;51.198;4.468;2023-07-22T12:54:53;26.50;64.00
22706;DHT22;11520;51.198;4.468;2023-07-22T12:57:20;26.60;64.60
22706;DHT22;11520;51.198;4.468;2023-07-22T12:59:46;26.90;64.20
22706;DHT22;11520;51.198;4.468;2023-07-22T13:02:13;26.50;64.50
22706;DHT22;11520;51.198;4.468;2023-07-22T13:04:43;26.10;64.80
22706;DHT22;11520;51.198;4.468;2023-07-22T13:07:13;25.80;65.80
22706;DHT22;11520;51.198;4.468;2023-07-22T13:09:39;25.20;66.40
22706;DHT22;11520;51.198;4.468;2023-07-22T13:12:06;24.90;68.10
22706;DHT22;11520;51.198;4.468;2023-07-22T13:14:34;24.70;69.20
22706;DHT22;11520;51.198;4.468;2023-07-22T13:17:03;24.60;69.50
22706;DHT22;11520;51.198;4.468;2023-07-22T13:19:29;24.30;70.20
22706;DHT22;11520;51.198;4.468;2023-07-22T13:21:55;24.20;70.70
22706;DHT22;11520;51.198;4.468;2023-07-22T13:24:22;24.10;71.70
22706;DHT22;11520;51.198;4.468;2023-07-22T13:26:47;24.20;72.50
22706;DHT22;11520;51.198;4.468;2023-07-22T13:29:14;24.20;72.30
22706;DHT22;11520;51.198;4.468;2023-07-22T13:31:40;24.20;72.70
22706;DHT22;11520;51.198;4.468;2023-07-22T13:34:05;24.20;72.50
22706;DHT22;11520;51.198;4.468;2023-07-22T13:36:32;24.20;75.20
22706;DHT22;11520;51.198;4.468;2023-07-22T13:38:58;24.40;76.70
22706;DHT22;11520;51.198;4.468;2023-07-22T13:41:24;24.90;77.00
22706;DHT22;11520;51.198;4.468;2023-07-22T13:43:49;25.00;77.20
22706;DHT22;11520;51.198;4.468;2023-07-22T13:46:15;25.40;77.50
22706;DHT22;11520;51.198;4.468;2023-07-22T13:48:42;25.90;77.80
22706;DHT22;11520;51.198;4.468;2023-07-22T13:51:08;26.10;75.50
22706;DHT22;11520;51.198;4.468;2023-07-22T13:53:34;26.20;74.60
22706;DHT22;11520;51.198;4.468;2023-07-22T13:55:59;26.00;75.00
22706;DHT22;11520;51.198;4.468;2023-07-22T13:58:25;26.20;75.10
22706;DHT22;11520;51.198;4.468;2023-07-22T14:00:54;26.10;75.70
22706;DHT22;11520;51.198;4.468;2023-07-22T14:03:19;26.10;76.30
22706;DHT22;11520;51.198;4.468;2023-07-22T14:05:45;26.00;76.10
22706;DHT22;11520;51.198;4.468;2023-07-22T14:08:11;25.80;76.80
22706;DHT22;11520;51.198;4.468;2023-07-22T14:10:37;25.20;78.70
22706;DHT22;11520;51.198;4.468;2023-07-22T14:13:04;24.70;80.80
22706;DHT22;11520;51.198;4.468;2023-07-22T14:15:30;24.50;82.70
22706;DHT22;11520;51.198;4.468;2023-07-22T14:17:55;24.30;82.00
22706;DHT22;11520;51.198;4.468;2023-07-22T14:20:21;24.20;82.30
22706;DHT22;11520;51.198;4.468;2023-07-22T14:22:47;24.10;82.50
22706;DHT22;11520;51.198;4.468;2023-07-22T14:25:16;24.10;82.30
22706;DHT22;11520;51.198;4.468;2023-07-22T14:27:42;24.10;82.20
22706;DHT22;11520;51.198;4.468;2023-07-22T14:30:09;23.80;82.50
22706;DHT22;11520;51.198;4.468;2023-07-22T14:32:34;23.70;83.40
22706;DHT22;11520;51.198;4.468;2023-07-22T14:35:01;23.50;82.90
22706;DHT22;11520;51.198;4.468;2023-07-22T14:37:27;23.40;83.80
22706;DHT22;11520;51.198;4.468;2023-07-22T14:39:53;23.60;84.40
22706;DHT22;11520;51.198;4.468;2023-07-22T14:42:18;23.40;84.70
22706;DHT22;11520;51.198;4.468;2023-07-22T14:44:44;23.20;85.50
22706;DHT22;11520;51.198;4.468;2023-07-22T14:47:10;23.10;86.80
22706;DHT22;11520;51.198;4.468;2023-07-22T14:49:36;22.90;87.00
22706;DHT22;11520;51.198;4.468;2023-07-22T14:52:01;22.60;87.40
22706;DHT22;11520;51.198;4.468;2023-07-22T14:54:27;22.60;88.20
22706;DHT22;11520;51.198;4.468;2023-07-22T14:56:53;22.60;88.80
22706;DHT22;11520;51.198;4.468;2023-07-22T14:59:18;22.60;88.70
22706;DHT22;11520;51.198;4.468;2023-07-22T15:01:44;22.70;88.80
22706;DHT22;11520;51.198;4.468;2023-07-22T15:04:10;22.80;88.40
22706;DHT22;11520;51.198;4.468;2023-07-22T15:06:35;23.00;88.00
22706;DHT22;11520;51.198;4.468;2023-07-22T15:09:02;23.20;87.50
22706;DHT22;11520;51.198;4.468;2023-07-22T15:11:32;23.10;86.10
22706;DHT22;11520;51.198;4.468;2023-07-22T15:13:58;23.20;87.00
22706;DHT22;11520;51.198;4.468;2023-07-22T15:16:24;23.20;86.50
22706;DHT22;11520;51.198;4.468;2023-07-22T15:18:50;23.20;86.20
22706;DHT22;11520;51.198;4.468;2023-07-22T15:21:17;23.30;85.80
22706;DHT22;11520;51.198;4.468;2023-07-22T15:23:42;23.40;85.60
22706;DHT22;11520;51.198;4.468;2023-07-22T15:26:08;23.70;85.40
22706;DHT22;11520;51.198;4.468;2023-07-22T15:28:34;23.70;84.60
22706;DHT22;11520;51.198;4.468;2023-07-22T15:30:59;23.80;84.40
22706;DHT22;11520;51.198;4.468;2023-07-22T15:33:25;23.90;84.80
22706;DHT22;11520;51.198;4.468;2023-07-22T15:35:51;24.00;83.70
22706;DHT22;11520;51.198;4.468;2023-07-22T15:38:17;24.10;83.60
22706;DHT22;11520;51.198;4.468;2023-07-22T15:40:46;24.00;83.60
22706;DHT22;11520;51.198;4.468;2023-07-22T15:43:11;24.10;83.60
22706;DHT22;11520;51.198;4.468;2023-07-22T15:45:37;24.00;83.50
22706;DHT22;11520;51.198;4.468;2023-07-22T15:48:02;23.80;83.90
22706;DHT22;11520;51.198;4.468;2023-07-22T15:50:30;24.10;84.60
22706;DHT22;11520;51.198;4.468;2023-07-22T15:52:55;24.20;83.50
22706;DHT22;11520;51.198;4.468;2023-07-22T15:55:21;24.00;82.20
22706;DHT22;11520;51.198;4.468;2023-07-22T15:57:47;23.80;83.10
22706;DHT22;11520;51.198;4.468;2023-07-22T16:00:13;23.70;83.50
22706;DHT22;11520;51.198;4.468;2023-07-22T16:02:39;23.70;83.80